Pagrindinis puslapis
METAR-TAF:

METAR-TAF

Oro uostai :

Passo Fundo, Pietų Rio Grandė, Brazilija

platuma: 28-15S, ilguma: 052-24W, Aukštis: 684 m

Dabartinis oras

Ataskaita buvo paskelbta 9 valandos ir 33 minutes, ne 18:00 UTC
Vėjas 8 kt iš Rytų/Šiaurės Rytų
Temperatūra 23°C
Drėgmė 41%
Slėgis 1020 hPa
Matomumas 10 km arba daugiau
nėra debesų žemiau 1500 m ir nėra kamuolinių lietaus debesų

METAR: SBPF 281800Z 06008KT CAVOK 23/09 Q1020

Laikas: 00:33 (03:33 UTC)


TAF: trūkstamas

Orai ataskaitas ir orų prognozės (METAR, TAF).

turimą stotys yra geltonos ir raudonos taškus žemėlapyje.

Perkelti pele per norėdami pamatyti stoties vardą.

Tada spustelėkite, norėdami matyti oro stebėjimo ir prognozės.

Norėdami pakeisti žemėlapį: spustelėkite ant žalios mygtukų su juodo kryžiaus žemyn,; žalią mygtuką su brūkšneliu, jei norite nutolinti; arba žalių rodyklių gretimoms žemėlapius.


METAR-TAF: